Time;durP1;ratioP1;P1;durP2;ratioP2;P2;SDS_P1;SDS_P2;PMS_P1;PMS_P2;Temp;Humidity;BMP_temperature;BMP_pressure;BME280_temperature;BME280_humidity;BME280_pressure;Samples;Min_cycle;Max_cycle;Signal;HPM_P1;HPM_P2
2023/01/10 00:00:54;;;;;;;5.00;1.73;;;8.80;95.90;;;;;;4972247;28;20031;-67
2023/01/10 00:03:20;;;;;;;2.83;1.40;;;8.80;95.70;;;;;;4966495;28;20143;-67
2023/01/10 00:05:46;;;;;;;2.00;1.42;;;8.80;95.90;;;;;;4978222;28;20077;-67
2023/01/10 00:08:16;;;;;;;2.55;1.42;;;8.80;96.00;;;;;;4977317;28;20058;-67
2023/01/10 00:10:41;;;;;;;2.78;1.30;;;8.80;95.80;;;;;;4972169;28;20143;-67
2023/01/10 00:13:22;;;;;;;3.03;1.45;;;8.80;95.90;;;;;;4986838;28;20155;-67
2023/01/10 00:15:52;;;;;;;1.77;1.48;;;8.80;96.00;;;;;;4969850;28;20117;-67
2023/01/10 00:18:18;;;;;;;1.42;1.15;;;8.70;95.80;;;;;;4970837;28;20136;-67
2023/01/10 00:20:44;;;;;;;1.70;1.30;;;8.70;96.10;;;;;;4970839;28;20048;-67
2023/01/10 00:23:11;;;;;;;3.90;2.05;;;8.80;96.20;;;;;;4974765;28;20376;-67
2023/01/10 00:25:37;;;;;;;3.85;1.67;;;8.80;96.00;;;;;;4972215;28;20046;-67
2023/01/10 00:28:16;;;;;;;2.33;1.75;;;8.80;95.90;;;;;;4977772;28;20114;-67
2023/01/10 00:30:41;;;;;;;2.75;1.75;;;8.80;96.00;;;;;;4973461;28;20038;-67
2023/01/10 00:33:09;;;;;;;3.63;2.38;;;8.80;96.10;;;;;;4973179;28;20074;-67
2023/01/10 00:35:34;;;;;;;2.95;1.48;;;8.80;95.90;;;;;;4969629;28;20038;-67
2023/01/10 00:38:04;;;;;;;2.72;1.63;;;8.80;96.00;;;;;;4971218;28;20057;-67
2023/01/10 00:40:31;;;;;;;3.53;1.90;;;8.80;95.90;;;;;;4966978;28;20039;-67
2023/01/10 00:45:44;;;;;;;2.45;2.10;;;8.90;95.90;;;;;;4966121;28;20034;-68
2023/01/10 00:48:11;;;;;;;2.85;1.60;;;8.90;96.10;;;;;;4971677;28;20126;-68
2023/01/10 00:50:36;;;;;;;3.13;2.15;;;8.90;96.00;;;;;;4976319;28;20113;-67
2023/01/10 00:53:02;;;;;;;3.90;1.98;;;9.00;96.00;;;;;;4973121;28;20188;-67
2023/01/10 00:55:28;;;;;;;3.78;2.20;;;9.00;95.70;;;;;;4973697;28;20045;-67
2023/01/10 00:57:54;;;;;;;3.17;1.70;;;9.00;95.80;;;;;;4969539;28;20601;-67
2023/01/10 01:00:20;;;;;;;3.30;2.28;;;9.00;95.70;;;;;;4967393;28;20130;-67
2023/01/10 01:02:47;;;;;;;4.07;1.70;;;9.00;95.80;;;;;;4971106;28;20038;-67
2023/01/10 01:05:12;;;;;;;4.43;2.13;;;8.90;95.70;;;;;;4967306;28;20050;-67
2023/01/10 01:07:38;;;;;;;4.88;1.95;;;8.90;95.70;;;;;;4972866;28;20050;-67
2023/01/10 01:12:48;;;;;;;5.35;1.98;;;8.80;95.90;;;;;;4968986;28;20125;-67
2023/01/10 01:15:14;;;;;;;2.17;1.60;;;8.80;95.90;;;;;;4973778;28;20122;-67
2023/01/10 01:17:40;;;;;;;3.50;1.60;;;8.80;95.90;;;;;;4973160;28;20557;-67
2023/01/10 01:20:06;;;;;;;2.67;1.40;;;8.80;95.90;;;;;;4974659;28;20817;-67
2023/01/10 01:22:32;;;;;;;2.00;1.40;;;8.80;95.90;;;;;;4970636;28;20038;-67
2023/01/10 01:24:58;;;;;;;1.77;1.60;;;8.80;95.90;;;;;;4971526;28;20034;-67
2023/01/10 01:27:24;;;;;;;2.42;1.25;;;8.70;95.90;;;;;;4971222;28;20643;-67
2023/01/10 01:29:50;;;;;;;1.17;1.05;;;8.70;96.00;;;;;;4978728;28;20481;-67
2023/01/10 01:32:16;;;;;;;5.95;1.50;;;8.70;96.00;;;;;;4981086;28;20124;-67
2023/01/10 01:34:41;;;;;;;2.17;1.40;;;8.70;96.10;;;;;;4981098;28;20041;-67
2023/01/10 01:37:07;;;;;;;2.75;1.17;;;8.80;96.10;;;;;;4974812;28;20201;-67
2023/01/10 01:39:33;;;;;;;1.95;1.13;;;8.80;95.80;;;;;;4976053;28;20035;-67
2023/01/10 01:41:59;;;;;;;2.60;1.60;;;8.70;95.90;;;;;;4969730;28;20118;-67
2023/01/10 01:44:38;;;;;;;3.10;1.42;;;8.70;95.90;;;;;;4975850;28;20101;-67
2023/01/10 01:47:16;;;;;;;1.52;1.20;;;8.70;96.00;;;;;;4967882;28;20035;-67
2023/01/10 01:49:43;;;;;;;2.30;1.38;;;8.60;95.90;;;;;;4977159;28;20030;-69
2023/01/10 01:52:17;;;;;;;2.30;1.13;;;8.60;96.20;;;;;;4974350;28;20034;-68
2023/01/10 01:54:43;;;;;;;5.55;2.05;;;8.60;96.40;;;;;;4972845;28;20081;-67
2023/01/10 01:57:13;;;;;;;2.95;1.58;;;8.60;96.50;;;;;;4977695;28;20129;-67
2023/01/10 01:59:43;;;;;;;4.28;1.58;;;8.60;96.40;;;;;;4972413;28;20521;-67
2023/01/10 02:02:20;;;;;;;3.63;1.60;;;8.70;96.20;;;;;;4987595;28;20693;-66
2023/01/10 02:04:57;;;;;;;3.38;1.73;;;8.60;96.00;;;;;;4969806;28;20141;-67
2023/01/10 02:07:24;;;;;;;4.20;1.65;;;8.60;96.00;;;;;;4975604;28;20046;-67
2023/01/10 02:09:56;;;;;;;1.90;1.42;;;8.50;96.10;;;;;;4971620;28;20035;-65
2023/01/10 02:12:23;;;;;;;3.83;2.22;;;8.40;96.20;;;;;;4971480;28;20865;-67
2023/01/10 02:14:50;;;;;;;2.75;2.10;;;8.40;96.30;;;;;;4978424;28;20069;-69
2023/01/10 02:17:16;;;;;;;3.78;2.40;;;8.30;96.60;;;;;;4977912;28;20030;-67
2023/01/10 02:20:02;;;;;;;3.13;2.53;;;8.30;97.00;;;;;;4976434;28;20053;-67
2023/01/10 02:22:30;;;;;;;6.32;2.80;;;8.20;97.20;;;;;;4973732;28;20084;-67
2023/01/10 02:25:22;;;;;;;3.58;2.78;;;8.30;97.30;;;;;;4969528;28;20062;-67
2023/01/10 02:28:08;;;;;;;5.95;2.88;;;8.30;97.40;;;;;;4972097;28;20034;-67
2023/01/10 02:31:05;;;;;;;6.80;3.17;;;8.30;97.30;;;;;;4968895;28;20030;-67
2023/01/10 02:33:44;;;;;;;6.88;2.40;;;8.40;97.30;;;;;;4970100;28;20039;-67
2023/01/10 02:36:16;;;;;;;8.73;2.70;;;8.50;97.00;;;;;;4975035;28;20038;-67
2023/01/10 02:39:04;;;;;;;5.50;2.45;;;8.40;96.90;;;;;;4976633;28;20037;-67
2023/01/10 02:41:29;;;;;;;3.05;1.90;;;8.40;97.00;;;;;;4973275;28;20031;-67
2023/01/10 02:44:03;;;;;;;4.68;2.40;;;8.30;96.90;;;;;;4970668;28;20513;-67
2023/01/10 02:46:31;;;;;;;4.93;2.17;;;8.30;97.00;;;;;;4976156;28;20042;-67
2023/01/10 02:48:56;;;;;;;4.25;2.05;;;8.20;96.90;;;;;;4967986;28;20038;-67
2023/01/10 02:51:28;;;;;;;5.53;2.20;;;8.10;97.00;;;;;;4972150;28;20081;-67
2023/01/10 02:54:08;;;;;;;3.88;2.30;;;8.00;97.10;;;;;;4970227;28;20399;-66
2023/01/10 02:57:08;;;;;;;6.53;2.80;;;8.00;97.10;;;;;;4977579;28;20042;-67
2023/01/10 02:59:52;;;;;;;3.92;2.42;;;7.90;97.20;;;;;;4976478;28;20737;-67
2023/01/10 03:02:21;;;;;;;3.38;2.00;;;7.80;97.20;;;;;;4972920;28;20144;-67
2023/01/10 03:04:54;;;;;;;3.50;1.80;;;7.70;97.30;;;;;;4971732;28;20053;-67
2023/01/10 03:07:44;;;;;;;3.60;2.05;;;7.70;97.30;;;;;;4969678;28;20041;-67
2023/01/10 03:10:22;;;;;;;4.03;2.40;;;7.60;97.40;;;;;;4972565;28;20430;-67
2023/01/10 03:13:09;;;;;;;3.28;1.92;;;7.50;97.50;;;;;;4968247;28;20116;-67
2023/01/10 03:15:38;;;;;;;4.10;2.00;;;7.40;97.70;;;;;;4973099;28;20034;-67
2023/01/10 03:18:11;;;;;;;4.70;2.47;;;7.30;97.90;;;;;;4970196;28;20489;-67
2023/01/10 03:20:41;;;;;;;4.93;2.63;;;7.30;98.10;;;;;;4976465;28;20069;-67
2023/01/10 03:23:07;;;;;;;3.97;2.10;;;7.30;98.30;;;;;;4975824;28;20649;-67
2023/01/10 03:25:36;;;;;;;4.40;2.65;;;7.30;98.50;;;;;;4973695;28;20038;-67
2023/01/10 03:28:31;;;;;;;4.05;2.85;;;7.30;98.70;;;;;;4989395;28;20030;-67
2023/01/10 03:31:08;;;;;;;4.18;2.50;;;7.40;98.80;;;;;;4979553;28;20046;-67
2023/01/10 03:33:35;;;;;;;8.70;2.92;;;7.50;98.80;;;;;;4975888;28;20031;-67
2023/01/10 03:36:30;;;;;;;4.22;2.88;;;7.50;98.90;;;;;;4967329;28;20543;-67
2023/01/10 03:39:00;;;;;;;10.40;3.80;;;7.60;99.00;;;;;;4976116;28;20069;-67
2023/01/10 03:42:03;;;;;;;8.43;3.45;;;7.70;99.10;;;;;;4978148;28;20558;-66
2023/01/10 03:44:46;;;;;;;7.68;3.80;;;7.70;99.20;;;;;;4973312;28;20041;-67
2023/01/10 03:47:31;;;;;;;12.10;4.03;;;7.80;99.30;;;;;;4973212;28;20806;-68
2023/01/10 03:50:05;;;;;;;9.68;4.75;;;7.90;99.30;;;;;;4973240;28;20038;-69
2023/01/10 03:52:33;;;;;;;9.52;4.97;;;8.00;99.20;;;;;;4971674;28;20553;-69
2023/01/10 03:54:59;;;;;;;7.40;3.70;;;8.00;99.30;;;;;;4964905;28;20042;-69
2023/01/10 03:57:26;;;;;;;9.05;3.90;;;8.10;99.10;;;;;;4971993;28;20106;-68
2023/01/10 03:59:57;;;;;;;6.57;3.60;;;8.10;99.10;;;;;;4964889;28;20042;-66
2023/01/10 04:02:30;;;;;;;11.65;4.18;;;8.10;99.00;;;;;;4972323;28;20088;-68
2023/01/10 04:04:57;;;;;;;13.55;3.53;;;8.10;98.80;;;;;;4974455;28;20556;-69
2023/01/10 04:07:24;;;;;;;6.70;3.78;;;8.10;98.70;;;;;;4970778;28;20042;-68
2023/01/10 04:09:50;;;;;;;8.45;3.55;;;8.00;98.80;;;;;;4974618;28;20034;-68
2023/01/10 04:12:16;;;;;;;8.38;3.67;;;7.90;98.70;;;;;;4969003;28;20109;-68
2023/01/10 04:14:44;;;;;;;8.77;3.80;;;7.90;98.70;;;;;;4972297;28;20027;-68
2023/01/10 04:17:10;;;;;;;5.60;2.97;;;7.90;98.80;;;;;;4970469;28;20561;-68
2023/01/10 04:19:36;;;;;;;6.75;3.40;;;7.90;98.80;;;;;;4968263;28;20034;-68
2023/01/10 04:22:02;;;;;;;7.95;3.25;;;7.90;98.80;;;;;;4974212;28;20030;-68
2023/01/10 04:24:27;;;;;;;7.18;3.40;;;7.80;98.80;;;;;;4977719;28;20921;-68
2023/01/10 04:26:53;;;;;;;6.18;3.17;;;7.80;98.80;;;;;;4974906;28;20034;-68
2023/01/10 04:29:19;;;;;;;7.53;4.70;;;7.80;98.90;;;;;;4973053;28;20050;-69
2023/01/10 04:31:45;;;;;;;6.47;3.17;;;7.80;99.10;;;;;;4968358;28;20093;-68
2023/01/10 04:34:10;;;;;;;8.07;3.20;;;7.80;99.10;;;;;;4969538;28;20038;-68
2023/01/10 04:36:36;;;;;;;9.18;3.95;;;7.90;99.20;;;;;;4970918;28;20034;-68
2023/01/10 04:39:03;;;;;;;5.93;3.80;;;7.90;99.20;;;;;;4969114;28;20108;-68
2023/01/10 04:41:29;;;;;;;4.60;3.10;;;8.00;99.20;;;;;;4967184;28;20812;-68
2023/01/10 04:43:55;;;;;;;7.60;3.60;;;8.00;99.20;;;;;;4971099;28;20039;-68
2023/01/10 04:46:21;;;;;;;9.02;3.97;;;8.10;99.10;;;;;;4972817;28;20073;-68
2023/01/10 04:48:46;;;;;;;7.65;3.60;;;8.10;99.20;;;;;;4968367;28;20104;-67
2023/01/10 04:51:12;;;;;;;6.15;3.90;;;8.10;99.20;;;;;;4969694;28;20890;-66
2023/01/10 04:53:38;;;;;;;6.72;3.45;;;8.10;99.10;;;;;;4972142;28;20397;-68
2023/01/10 04:56:05;;;;;;;6.38;3.13;;;8.10;99.10;;;;;;4966207;28;20583;-66
2023/01/10 04:58:33;;;;;;;7.38;3.58;;;8.20;99.10;;;;;;4972264;28;20038;-68
2023/01/10 05:00:59;;;;;;;6.82;3.50;;;8.20;99.00;;;;;;4964343;28;20033;-66
2023/01/10 05:03:25;;;;;;;7.43;3.22;;;8.20;98.90;;;;;;4972012;28;20022;-66
2023/01/10 05:05:50;;;;;;;8.68;3.10;;;8.20;98.90;;;;;;4974378;28;20034;-68
2023/01/10 05:08:16;;;;;;;8.20;3.25;;;8.20;98.90;;;;;;4973104;28;20147;-68
2023/01/10 05:10:42;;;;;;;5.25;3.20;;;8.20;98.90;;;;;;4973982;28;20085;-69
2023/01/10 05:13:08;;;;;;;12.07;3.58;;;8.20;98.90;;;;;;4970874;28;20042;-68
2023/01/10 05:15:33;;;;;;;8.85;3.80;;;8.20;99.00;;;;;;4970287;28;20065;-68
2023/01/10 05:17:59;;;;;;;10.48;4.15;;;8.30;98.90;;;;;;4969838;28;20035;-68
2023/01/10 05:20:25;;;;;;;7.63;2.92;;;8.30;99.00;;;;;;4966445;28;20027;-68
2023/01/10 05:22:51;;;;;;;9.98;4.45;;;8.30;98.80;;;;;;4971711;28;20435;-66
2023/01/10 05:25:17;;;;;;;11.77;4.05;;;8.30;98.80;;;;;;4968202;28;20414;-68
2023/01/10 05:27:42;;;;;;;8.90;3.85;;;8.40;98.70;;;;;;4976095;28;20034;-68
2023/01/10 05:30:11;;;;;;;8.48;3.75;;;8.40;98.70;;;;;;4975179;28;20704;-68
2023/01/10 05:32:37;;;;;;;9.68;4.15;;;8.40;98.60;;;;;;4986569;28;20046;-68
2023/01/10 05:35:03;;;;;;;10.25;4.32;;;8.40;98.60;;;;;;4971045;28;20065;-68
2023/01/10 05:37:29;;;;;;;8.15;4.13;;;8.40;98.50;;;;;;4969236;28;20159;-68
2023/01/10 05:39:55;;;;;;;12.30;4.25;;;8.40;98.60;;;;;;4972248;28;20524;-68
2023/01/10 05:42:20;;;;;;;9.27;4.05;;;8.40;98.60;;;;;;4971644;28;20513;-68
2023/01/10 05:44:46;;;;;;;10.25;4.13;;;8.40;98.70;;;;;;4970357;28;20544;-68
2023/01/10 05:47:12;;;;;;;12.38;5.20;;;8.50;98.60;;;;;;4973381;28;20762;-68
2023/01/10 05:49:38;;;;;;;7.93;4.10;;;8.50;98.50;;;;;;4976085;28;20045;-68
2023/01/10 05:52:04;;;;;;;6.53;3.67;;;8.50;98.40;;;;;;4972432;28;20038;-68
2023/01/10 05:54:29;;;;;;;4.90;3.53;;;8.60;98.40;;;;;;4973696;28;20096;-68
2023/01/10 05:56:56;;;;;;;9.60;4.57;;;8.60;98.30;;;;;;4968535;28;20137;-69
2023/01/10 05:59:22;;;;;;;10.82;4.10;;;8.60;98.30;;;;;;4971858;28;20042;-68
2023/01/10 06:01:48;;;;;;;10.63;4.30;;;8.70;98.20;;;;;;4968679;28;20277;-68
2023/01/10 06:04:13;;;;;;;10.18;3.90;;;8.70;98.10;;;;;;4974792;28;20494;-68
2023/01/10 06:06:39;;;;;;;6.65;3.42;;;8.70;98.10;;;;;;4971477;28;20042;-68
2023/01/10 06:09:05;;;;;;;12.25;5.18;;;8.70;98.10;;;;;;4975751;28;20038;-69
2023/01/10 06:11:35;;;;;;;8.85;4.40;;;8.80;98.10;;;;;;4979161;28;20030;-69
2023/01/10 06:14:01;;;;;;;10.45;4.43;;;8.80;98.00;;;;;;4975773;28;20050;-68
2023/01/10 06:16:27;;;;;;;10.48;3.72;;;8.80;97.90;;;;;;4975416;28;20104;-68
2023/01/10 06:18:53;;;;;;;12.52;4.80;;;8.80;97.90;;;;;;4977011;28;20554;-68
2023/01/10 06:21:19;;;;;;;11.85;5.00;;;8.80;97.70;;;;;;4969673;28;20069;-68
2023/01/10 06:23:45;;;;;;;11.02;4.30;;;8.80;97.70;;;;;;4973421;28;20606;-68
2023/01/10 06:26:10;;;;;;;14.20;4.40;;;8.80;97.70;;;;;;4969248;28;20494;-68
2023/01/10 06:28:36;;;;;;;10.50;5.70;;;8.80;97.70;;;;;;4975535;28;20039;-68
2023/01/10 06:31:02;;;;;;;17.95;6.20;;;8.80;97.50;;;;;;4977718;28;20038;-69
2023/01/10 06:33:28;;;;;;;14.02;6.50;;;8.80;97.40;;;;;;4975771;28;20042;-68
2023/01/10 06:35:53;;;;;;;14.02;5.50;;;8.80;97.40;;;;;;4978225;28;20040;-67
2023/01/10 06:38:19;;;;;;;10.60;5.20;;;8.80;97.50;;;;;;4972915;28;20030;-66
2023/01/10 06:40:45;;;;;;;16.80;7.05;;;8.80;97.50;;;;;;4976361;28;20493;-67
2023/01/10 06:43:11;;;;;;;13.13;5.38;;;8.80;97.40;;;;;;4970152;28;20514;-68
2023/01/10 06:45:36;;;;;;;18.77;6.40;;;8.80;97.20;;;;;;4971416;28;20498;-68
2023/01/10 06:48:03;;;;;;;12.60;6.22;;;8.80;97.20;;;;;;4971503;28;20031;-68
2023/01/10 06:50:29;;;;;;;13.05;5.15;;;8.70;97.30;;;;;;4967337;28;20418;-67
2023/01/10 06:52:56;;;;;;;15.57;6.47;;;8.80;97.40;;;;;;4977287;28;20029;-68
2023/01/10 06:55:22;;;;;;;18.63;7.70;;;8.70;97.40;;;;;;4977865;28;20399;-69
2023/01/10 06:57:48;;;;;;;19.70;8.15;;;8.70;97.30;;;;;;4974167;28;20022;-67
2023/01/10 07:00:14;;;;;;;18.60;5.75;;;8.70;97.40;;;;;;4974012;28;20027;-68
2023/01/10 07:02:40;;;;;;;11.25;5.50;;;8.70;97.20;;;;;;4970482;28;20061;-69
2023/01/10 07:05:06;;;;;;;20.17;8.88;;;8.60;97.20;;;;;;4974046;28;20035;-69
2023/01/10 07:07:32;;;;;;;16.10;6.90;;;8.60;97.30;;;;;;4973811;28;20210;-66
2023/01/10 07:09:58;;;;;;;19.67;7.65;;;8.60;97.60;;;;;;4972664;28;20050;-66
2023/01/10 07:12:24;;;;;;;17.88;8.32;;;8.60;97.20;;;;;;4974077;28;20046;-69
2023/01/10 07:14:50;;;;;;;17.65;6.97;;;8.50;97.30;;;;;;4975208;28;20030;-68
2023/01/10 07:17:16;;;;;;;10.20;5.65;;;8.50;97.30;;;;;;4974245;28;20038;-66
2023/01/10 07:19:42;;;;;;;11.55;5.38;;;8.50;97.40;;;;;;4977361;28;20027;-68
2023/01/10 07:22:07;;;;;;;12.02;5.30;;;8.50;97.50;;;;;;4974378;28;20030;-66
2023/01/10 07:24:34;;;;;;;10.05;4.82;;;8.50;97.50;;;;;;4975787;28;20114;-68
2023/01/10 07:26:59;;;;;;;15.10;5.90;;;8.50;97.40;;;;;;4968465;28;20038;-66
2023/01/10 07:29:25;;;;;;;8.60;5.15;;;8.50;97.30;;;;;;4972389;28;20045;-68
2023/01/10 07:31:51;;;;;;;14.95;5.25;;;8.50;97.50;;;;;;4967670;28;20039;-69
2023/01/10 07:34:17;;;;;;;12.38;5.93;;;8.40;97.50;;;;;;4976111;28;20037;-66
2023/01/10 07:36:42;;;;;;;14.18;5.55;;;8.40;97.60;;;;;;4977349;28;20060;-68
2023/01/10 07:39:08;;;;;;;9.80;5.57;;;8.40;97.50;;;;;;4977641;28;20066;-68
2023/01/10 07:41:34;;;;;;;10.57;4.63;;;8.50;97.50;;;;;;4976735;28;20042;-68
2023/01/10 07:44:02;;;;;;;14.68;6.10;;;8.50;97.60;;;;;;4975353;28;20034;-68
2023/01/10 07:46:27;;;;;;;11.98;6.28;;;8.40;97.60;;;;;;4977733;28;20038;-68
2023/01/10 07:48:53;;;;;;;8.85;5.35;;;8.40;97.60;;;;;;4973429;28;20084;-68
2023/01/10 07:51:19;;;;;;;11.43;5.65;;;8.50;97.70;;;;;;4981995;28;20562;-68
2023/01/10 07:53:45;;;;;;;10.32;5.45;;;8.50;97.70;;;;;;4974347;28;20150;-68
2023/01/10 07:56:11;;;;;;;8.95;5.00;;;8.50;97.60;;;;;;4972184;28;20030;-68
2023/01/10 07:58:36;;;;;;;13.70;6.22;;;8.60;97.70;;;;;;4974942;28;20828;-68
2023/01/10 08:01:04;;;;;;;10.60;5.13;;;8.60;97.60;;;;;;4975465;28;20031;-68
2023/01/10 08:03:31;;;;;;;12.63;5.10;;;8.70;97.50;;;;;;4967572;28;20129;-68
2023/01/10 08:06:05;;;;;;;15.35;5.43;;;8.60;97.50;;;;;;4973964;28;20031;-68
2023/01/10 08:08:33;;;;;;;10.60;5.63;;;8.60;97.60;;;;;;4967748;28;20047;-68
2023/01/10 08:11:01;;;;;;;12.15;5.88;;;8.70;97.50;;;;;;4969736;28;20074;-68
2023/01/10 08:13:27;;;;;;;10.70;5.97;;;8.60;97.40;;;;;;4969969;28;20113;-68
2023/01/10 08:15:53;;;;;;;9.40;5.63;;;8.60;97.40;;;;;;4966788;28;20052;-69
2023/01/10 08:18:20;;;;;;;10.15;5.15;;;8.50;97.50;;;;;;4971650;28;20069;-68
2023/01/10 08:20:51;;;;;;;11.57;5.43;;;8.50;97.80;;;;;;4961635;28;20022;-68
2023/01/10 08:23:18;;;;;;;8.25;5.18;;;8.40;98.00;;;;;;4968601;28;20046;-68
2023/01/10 08:25:44;;;;;;;9.70;5.32;;;8.50;98.20;;;;;;4974085;28;20057;-68
2023/01/10 08:28:10;;;;;;;9.60;5.00;;;8.50;98.30;;;;;;4969367;28;20085;-68
2023/01/10 08:30:36;;;;;;;8.43;5.35;;;8.60;98.40;;;;;;4974041;28;20530;-68
2023/01/10 08:33:04;;;;;;;14.85;7.47;;;8.70;98.30;;;;;;4970400;28;20081;-68
2023/01/10 08:35:30;;;;;;;12.40;5.78;;;8.80;97.80;;;;;;4969069;28;20050;-69
2023/01/10 08:37:59;;;;;;;11.10;6.22;;;8.90;98.10;;;;;;4972239;28;20042;-67
2023/01/10 08:40:26;;;;;;;16.38;5.88;;;9.10;97.90;;;;;;4962837;28;20093;-68
2023/01/10 08:43:00;;;;;;;12.73;6.43;;;9.30;97.60;;;;;;4975334;28;20081;-68
2023/01/10 08:45:26;;;;;;;10.95;5.53;;;9.40;96.90;;;;;;4968406;28;20031;-68
2023/01/10 08:47:52;;;;;;;13.15;6.60;;;9.50;96.70;;;;;;4969457;28;20069;-69
2023/01/10 08:50:18;;;;;;;13.43;6.10;;;9.50;96.60;;;;;;4967993;28;20042;-68
2023/01/10 08:52:44;;;;;;;16.40;5.88;;;9.40;96.60;;;;;;4969775;28;20084;-68
2023/01/10 08:55:10;;;;;;;14.38;5.47;;;9.30;96.90;;;;;;4970590;28;20038;-68
2023/01/10 08:57:36;;;;;;;8.90;4.72;;;9.20;97.20;;;;;;4966881;28;20043;-69
2023/01/10 09:00:03;;;;;;;13.90;4.93;;;9.20;97.20;;;;;;4976861;28;20037;-68
2023/01/10 09:02:29;;;;;;;11.48;4.72;;;9.20;97.30;;;;;;4972458;28;20085;-68
2023/01/10 09:04:54;;;;;;;11.82;5.05;;;9.20;97.40;;;;;;4968486;28;20030;-66
2023/01/10 09:07:20;;;;;;;9.77;4.38;;;9.30;97.40;;;;;;4974520;28;20042;-67
2023/01/10 09:09:46;;;;;;;11.50;5.55;;;9.30;97.00;;;;;;4976009;28;20036;-68
2023/01/10 09:14:56;;;;;;;16.23;5.38;;;9.20;97.00;;;;;;4968567;28;20042;-69
2023/01/10 09:17:22;;;;;;;9.90;4.72;;;9.30;97.20;;;;;;4972112;28;20046;-68
2023/01/10 09:19:48;;;;;;;10.55;4.30;;;9.30;97.30;;;;;;4969091;28;20042;-68
2023/01/10 09:22:13;;;;;;;8.30;4.40;;;9.30;97.10;;;;;;4966412;28;20084;-71
2023/01/10 09:24:40;;;;;;;6.70;3.53;;;9.30;97.30;;;;;;4976066;28;20113;-69
2023/01/10 09:27:06;;;;;;;8.88;4.03;;;9.30;97.40;;;;;;4974979;28;20038;-68
2023/01/10 09:29:32;;;;;;;9.88;4.32;;;9.30;97.30;;;;;;4970419;28;20636;-69
2023/01/10 09:31:58;;;;;;;10.25;3.95;;;9.40;97.70;;;;;;4972606;28;20038;-69
2023/01/10 09:34:23;;;;;;;7.47;3.78;;;9.80;96.30;;;;;;4967303;28;20038;-69
2023/01/10 09:36:49;;;;;;;10.70;4.40;;;10.00;95.90;;;;;;4973340;28;20026;-69
2023/01/10 09:39:15;;;;;;;12.75;4.80;;;10.10;95.20;;;;;;4972731;28;20064;-69
2023/01/10 09:41:49;;;;;;;5.32;3.05;;;10.10;95.00;;;;;;4974715;28;20116;-68
2023/01/10 09:44:26;;;;;;;5.97;3.15;;;9.90;95.00;;;;;;4975700;28;20023;-69
2023/01/10 09:47:15;;;;;;;10.23;4.15;;;9.80;95.60;;;;;;4973150;28;20451;-69
2023/01/10 09:49:56;;;;;;;11.27;5.68;;;10.20;95.60;;;;;;4977283;28;20027;-68
2023/01/10 09:52:31;;;;;;;12.00;6.10;;;11.10;93.50;;;;;;4968656;28;20034;-68
2023/01/10 09:54:59;;;;;;;6.78;4.15;;;11.80;91.80;;;;;;4973158;28;20466;-69
2023/01/10 09:57:25;;;;;;;9.98;3.92;;;12.50;90.30;;;;;;4968215;28;20721;-69
2023/01/10 09:59:52;;;;;;;15.43;5.03;;;12.90;88.10;;;;;;4972134;28;20034;-68
2023/01/10 10:02:30;;;;;;;14.63;5.88;;;12.90;87.60;;;;;;4970410;28;20041;-69
2023/01/10 10:05:17;;;;;;;11.25;4.63;;;13.40;85.50;;;;;;4971115;28;20038;-69
2023/01/10 10:07:43;;;;;;;9.02;3.58;;;14.00;81.30;;;;;;4978195;28;20022;-68
2023/01/10 10:10:20;;;;;;;9.32;4.03;;;14.10;80.40;;;;;;4975960;28;20038;-68
2023/01/10 10:12:55;;;;;;;11.35;3.88;;;13.90;80.30;;;;;;4973236;28;20066;-69
2023/01/10 10:16:08;;;;;;;10.55;3.90;;;14.30;78.80;;;;;;4972322;28;20789;-68
2023/01/10 10:18:43;;;;;;;10.02;3.92;;;14.20;78.70;;;;;;4972243;28;20035;-68
2023/01/10 10:21:21;;;;;;;11.57;3.95;;;14.90;76.70;;;;;;4973343;28;20034;-68
2023/01/10 10:24:02;;;;;;;11.05;4.43;;;15.70;73.60;;;;;;4975850;28;20041;-68
2023/01/10 10:26:33;;;;;;;10.52;4.40;;;15.90;69.20;;;;;;4971874;28;20146;-68
2023/01/10 10:29:25;;;;;;;11.65;4.00;;;15.10;71.60;;;;;;4972423;28;20038;-69
2023/01/10 10:32:03;;;;;;;12.02;3.45;;;14.00;75.50;;;;;;4975097;28;20070;-68
2023/01/10 10:34:45;;;;;;;16.58;4.43;;;13.10;79.60;;;;;;4969160;28;20069;-69
2023/01/10 10:37:20;;;;;;;10.07;3.22;;;12.40;84.20;;;;;;4973116;28;20038;-69
2023/01/10 10:40:05;;;;;;;9.48;2.88;;;12.10;86.30;;;;;;4970605;28;20435;-69
2023/01/10 10:42:36;;;;;;;11.23;3.53;;;13.20;85.50;;;;;;4971010;28;20799;-68
2023/01/10 10:45:16;;;;;;;9.85;3.30;;;14.50;79.00;;;;;;4970470;28;20041;-68
2023/01/10 10:47:48;;;;;;;10.75;3.10;;;15.30;72.70;;;;;;4970211;28;20133;-68
2023/01/10 10:50:17;;;;;;;8.27;2.92;;;14.50;74.30;;;;;;4975127;28;20041;-68
2023/01/10 10:52:44;;;;;;;8.93;2.95;;;13.50;78.20;;;;;;4975465;28;20027;-69
2023/01/10 10:55:18;;;;;;;9.85;3.20;;;12.70;81.50;;;;;;4969974;28;20085;-67
2023/01/10 10:57:45;;;;;;;18.02;4.55;;;12.00;85.70;;;;;;4972420;28;20034;-68
2023/01/10 11:00:18;;;;;;;23.15;10.60;;;11.60;88.70;;;;;;4966914;28;20065;-69
2023/01/10 11:02:56;;;;;;;23.83;11.48;;;11.10;90.30;;;;;;4971345;28;20034;-68
2023/01/10 11:05:39;;;;;;;9.75;4.15;;;10.80;91.50;;;;;;4969922;28;20034;-67
2023/01/10 11:08:14;;;;;;;11.02;3.75;;;10.80;92.10;;;;;;4974059;28;20042;-68
2023/01/10 11:10:45;;;;;;;29.95;9.93;;;10.80;92.20;;;;;;4967290;28;20037;-68
2023/01/10 11:13:34;;;;;;;33.70;11.40;;;10.80;92.10;;;;;;4973976;28;20097;-72
2023/01/10 11:16:03;;;;;;;15.00;5.35;;;11.70;90.00;;;;;;4977174;28;20674;-73
2023/01/10 11:18:29;;;;;;;18.20;3.85;;;14.30;81.40;;;;;;4971949;28;20038;-69
2023/01/10 11:21:03;;;;;;;14.20;5.25;;;15.70;73.80;;;;;;4976624;28;20046;-68
2023/01/10 11:23:40;;;;;;;13.63;5.35;;;15.40;72.80;;;;;;4970147;28;20038;-69
2023/01/10 11:26:27;;;;;;;13.45;6.90;;;14.50;75.30;;;;;;4987766;28;20047;-68
2023/01/10 11:29:47;;;;;;;15.85;2.90;;;13.60;78.40;;;;;;4972487;28;20514;-68
2023/01/10 11:32:34;;;;;;;18.00;6.75;;;13.00;81.20;;;;;;4966172;28;20042;-67
2023/01/10 11:35:05;;;;;;;10.38;3.05;;;12.30;83.50;;;;;;4977664;28;20092;-68
2023/01/10 11:37:33;;;;;;;13.05;2.55;;;12.00;86.10;;;;;;4971060;28;20066;-68
2023/01/10 11:40:22;;;;;;;15.35;5.35;;;11.80;88.20;;;;;;4972107;28;20070;-66
2023/01/10 11:42:50;;;;;;;10.40;2.55;;;11.70;87.70;;;;;;4970868;28;20023;-68
2023/01/10 11:45:18;;;;;;;14.27;4.80;;;11.60;89.70;;;;;;4970234;28;20031;-68
2023/01/10 11:47:53;;;;;;;18.77;5.50;;;11.40;90.10;;;;;;4972425;28;20438;-69
2023/01/10 11:50:30;;;;;;;14.00;2.88;;;11.20;90.80;;;;;;4971778;28;20177;-68
2023/01/10 11:52:56;;;;;;;17.63;6.22;;;11.20;90.90;;;;;;4970705;28;20486;-68
2023/01/10 11:55:27;;;;;;;16.40;3.28;;;11.30;90.70;;;;;;4972283;28;20034;-67
2023/01/10 11:58:03;;;;;;;9.50;3.10;;;11.30;90.20;;;;;;4977077;28;20053;-67
2023/01/10 12:00:43;;;;;;;11.13;3.03;;;11.40;90.30;;;;;;4973263;28;20041;-67
2023/01/10 12:03:31;;;;;;;10.50;3.30;;;11.60;90.00;;;;;;4971698;28;20133;-67
2023/01/10 12:06:03;;;;;;;14.20;2.95;;;11.40;88.30;;;;;;4970611;28;20030;-68
2023/01/10 12:08:31;;;;;;;11.18;2.92;;;11.40;90.10;;;;;;4968783;28;20402;-67
2023/01/10 12:11:27;;;;;;;10.65;3.05;;;11.30;89.30;;;;;;4964612;28;20117;-68
2023/01/10 12:13:58;;;;;;;22.02;3.90;;;11.40;89.70;;;;;;4962012;28;20041;-67
2023/01/10 12:16:31;;;;;;;13.32;2.53;;;11.30;88.80;;;;;;4974375;28;20045;-67
2023/01/10 12:19:10;;;;;;;7.18;2.55;;;11.40;88.50;;;;;;4970480;28;20031;-68
2023/01/10 12:21:44;;;;;;;11.60;2.95;;;11.30;88.30;;;;;;4974839;28;20034;-68
2023/01/10 12:24:34;;;;;;;10.57;2.75;;;11.30;88.80;;;;;;4973203;28;20041;-67
2023/01/10 12:27:01;;;;;;;15.95;3.58;;;11.30;88.80;;;;;;4973751;28;20141;-67
2023/01/10 12:29:33;;;;;;;12.00;2.67;;;11.40;89.20;;;;;;4973272;28;20034;-67
2023/01/10 12:32:00;;;;;;;11.52;2.55;;;11.30;89.20;;;;;;4971144;28;20051;-68
2023/01/10 12:34:42;;;;;;;15.77;2.63;;;11.20;89.30;;;;;;4974017;28;20197;-68
2023/01/10 12:37:13;;;;;;;12.93;2.25;;;11.10;88.50;;;;;;4977833;28;20062;-68
2023/01/10 12:39:45;;;;;;;8.90;2.60;;;10.90;90.20;;;;;;4976503;28;20023;-68
2023/01/10 12:45:31;;;;;;;10.98;2.50;;;10.80;90.70;;;;;;4972535;28;20097;-67
2023/01/10 12:48:11;;;;;;;13.55;2.58;;;10.80;90.60;;;;;;4969212;28;20556;-67
2023/01/10 12:50:52;;;;;;;13.27;3.38;;;10.80;91.40;;;;;;4972599;28;20514;-67
2023/01/10 12:53:28;;;;;;;6.75;2.28;;;10.80;90.80;;;;;;4971837;28;20038;-67
2023/01/10 12:55:56;;;;;;;;;;;10.70;90.80;;;;;;4971958;28;20032;-68
2023/01/10 12:58:42;;;;;;;17.65;3.00;;;10.70;90.80;;;;;;4975083;28;19913;-68
2023/01/10 13:01:14;;;;;;;7.03;2.08;;;10.70;90.80;;;;;;4971756;28;20035;-68
2023/01/10 13:03:40;;;;;;;11.77;2.40;;;10.70;90.60;;;;;;4975657;28;20034;-68
2023/01/10 13:06:07;;;;;;;10.40;2.25;;;10.60;90.80;;;;;;4969119;28;20514;-68
2023/01/10 13:08:34;;;;;;;12.98;2.42;;;10.60;91.10;;;;;;4972652;28;20043;-68
2023/01/10 13:11:01;;;;;;;8.95;2.55;;;10.60;91.20;;;;;;4969825;28;20081;-68
2023/01/10 13:13:35;;;;;;;8.65;3.30;;;10.60;91.10;;;;;;4967716;28;20435;-68
2023/01/10 13:16:14;;;;;;;11.32;3.00;;;10.60;91.30;;;;;;4969356;28;20038;-68
2023/01/10 13:19:00;;;;;;;13.85;3.05;;;10.60;91.20;;;;;;4970031;28;20126;-68